Roosevelt, UT

6:33 PM MDT on May 22, 2017 (GMT -0600)
Gale's Acres | | Change Station

Elev 5039 ft 40.28 °N, 109.99 °W | Updated 58 seconds ago

Partly Cloudy
Partly Cloudy
73.4 °F
Feels Like 76 °F
N
4.0
Wind Variable Wind from NE

Today
High -- | Low -- °F
--% Chance of Precip.
Yesterday
High -- | Low -- °F
Precip. -- in
Pressure 30.01 in
Visibility 10.0 miles
Clouds Scattered Clouds 11000 ft
Heat Index 76 °F
Dew Point 34 °F
Humidity 24%
Rainfall 0.00 in
Snow Depth Not available.
5:57 AM 8:35 PM
Waning Crescent, 11% visible
METAR KVEL 222353Z AUTO 05003KT 10SM SCT110 21/01 A3010 RMK AO2 RAB13E24 SLP162 P0000 60000 T02110006 10217 20167 56015
Pressure 30.01 in
Visibility 10.0 miles
Clouds Scattered Clouds 11000 ft
Heat Index 76 °F
Dew Point 34 °F
Humidity 24%
Rainfall 0.00 in
Snow Depth Not available.
5:57 AM 8:35 PM
Waning Crescent, 11% visible
METAR KVEL 222353Z AUTO 05003KT 10SM SCT110 21/01 A3010 RMK AO2 RAB13E24 SLP162 P0000 60000 T02110006 10217 20167 56015

Get Severe Weather Alerts

Thanks for signing up!

Be on the lookout for a verification email in your inbox.

You'll start receiving the daily forecast at 6 AM.

×

10-Day Weather Forecast

Almanac

Astronomy

May. 22, 2017 Rise Set
Actual Time
Civil Twilight
Nautical Twilight
Astronomical Twilight
Moon
Length of Visible Light
Length of Day
Tomorrow will be .
, % of the Moon is Illuminated

Today's Extremes

State Highs State Lows

Community

WunderPhotos

Category 6

Welcome to Category 6. This is the collective home for Weather Underground's featured writeups by Dr. Jeff Masters (right), Bob Henson (left), Chris Burt, and other regular contributors.

Nearby

Air Quality

  Air Quality AQ Index Pollutant
Not available.

Snow Depth

Station Depth Elevation

Earthquake Activity

City Distance Mag. Time & Date
Minimum magnitude displayed is 2.5.

Coastal Water Temperatures

Place Temperature

Stations

Nearby Weather Stations

Station Location Temp. Windchill Dew Point Humidity Wind Precip. Elev Updated Type
                   

Watches & Warnings

There are currently no watches in effect.